createdAt,value
2019-03-13T00:01:55.469Z,1.73
2019-03-13T00:04:21.782Z,1.79
2019-03-13T00:06:48.096Z,1.75
2019-03-13T00:09:14.397Z,1.71
2019-03-13T00:11:40.712Z,1.71
2019-03-13T00:14:07.018Z,1.77
2019-03-13T00:16:33.350Z,1.76
2019-03-13T00:18:59.657Z,1.62
2019-03-13T00:21:25.964Z,1.44
2019-03-13T00:23:52.270Z,1.36
2019-03-13T00:26:18.585Z,1.46
2019-03-13T00:28:44.889Z,1.54
2019-03-13T00:31:11.192Z,1.42
2019-03-13T00:33:37.502Z,1.45
2019-03-13T00:36:03.804Z,1.49
2019-03-13T00:38:30.145Z,1.44
2019-03-13T00:40:56.455Z,1.29
2019-03-13T00:43:22.769Z,1.31
2019-03-13T00:45:49.068Z,1.38
2019-03-13T00:48:15.370Z,1.41
2019-03-13T00:50:41.700Z,1.41
2019-03-13T00:53:08.010Z,1.46
2019-03-13T00:55:34.319Z,1.57
2019-03-13T00:58:00.638Z,1.58
2019-03-13T01:00:26.938Z,1.55
2019-03-13T01:02:53.249Z,1.57
2019-03-13T01:05:19.547Z,1.69
2019-03-13T01:07:45.855Z,1.70
2019-03-13T01:10:12.156Z,1.75
2019-03-13T01:12:38.462Z,1.80
2019-03-13T01:15:04.779Z,1.90
2019-03-13T01:17:31.108Z,1.91
2019-03-13T01:19:57.418Z,1.92
2019-03-13T01:22:23.735Z,1.85
2019-03-13T01:24:50.052Z,1.83
2019-03-13T01:27:16.347Z,1.79
2019-03-13T01:29:42.657Z,1.66
2019-03-13T01:32:08.959Z,1.60
2019-03-13T01:34:35.274Z,1.59
2019-03-13T01:37:01.584Z,1.71
2019-03-13T01:39:27.921Z,1.59
2019-03-13T01:41:54.228Z,1.58
2019-03-13T01:44:20.536Z,1.55
2019-03-13T01:46:46.852Z,1.48
2019-03-13T01:49:13.168Z,1.49
2019-03-13T01:51:39.479Z,1.46
2019-03-13T01:54:05.785Z,1.41
2019-03-13T01:56:32.123Z,1.41
2019-03-13T01:58:58.426Z,1.42
2019-03-13T02:01:24.739Z,1.38
2019-03-13T02:03:51.053Z,1.38
2019-03-13T02:06:17.366Z,1.40
2019-03-13T02:08:43.674Z,1.35
2019-03-13T02:11:09.979Z,1.27
2019-03-13T02:13:36.311Z,1.36
2019-03-13T02:16:02.619Z,1.29
2019-03-13T02:18:28.948Z,1.41
2019-03-13T02:20:55.252Z,1.48
2019-03-13T02:23:21.555Z,1.58
2019-03-13T02:25:47.861Z,1.63
2019-03-13T02:28:14.186Z,1.47
2019-03-13T02:30:40.503Z,1.40
2019-03-13T02:33:06.794Z,1.46
2019-03-13T02:35:33.115Z,1.56
2019-03-13T02:37:59.432Z,1.63
2019-03-13T02:40:25.736Z,1.64
2019-03-13T02:42:52.043Z,1.71
2019-03-13T02:45:18.367Z,1.73
2019-03-13T02:47:44.680Z,1.79
2019-03-13T02:50:10.996Z,1.83
2019-03-13T02:52:37.394Z,1.80
2019-03-13T02:55:03.625Z,1.75
2019-03-13T02:57:29.924Z,1.67
2019-03-13T02:59:56.234Z,1.67
2019-03-13T03:02:22.558Z,1.74
2019-03-13T03:04:48.856Z,1.73
2019-03-13T03:07:15.184Z,1.74
2019-03-13T03:09:41.489Z,1.77
2019-03-13T03:12:07.825Z,1.78
2019-03-13T03:14:34.131Z,1.86
2019-03-13T03:17:00.435Z,1.89
2019-03-13T03:19:26.754Z,2.00
2019-03-13T03:21:53.063Z,2.06
2019-03-13T03:24:19.369Z,2.11
2019-03-13T03:26:45.667Z,2.13
2019-03-13T03:29:12.009Z,2.19
2019-03-13T03:31:38.312Z,2.26
2019-03-13T03:34:04.645Z,2.23
2019-03-13T03:36:30.946Z,2.28
2019-03-13T03:38:57.240Z,2.24
2019-03-13T03:41:23.540Z,2.20
2019-03-13T03:43:49.865Z,2.23
2019-03-13T03:46:16.176Z,2.32
2019-03-13T03:48:42.476Z,2.35
2019-03-13T03:51:08.804Z,2.30
2019-03-13T03:53:35.114Z,2.28
2019-03-13T03:56:01.413Z,2.30
2019-03-13T03:58:29.620Z,2.38
2019-03-13T04:00:54.042Z,2.35
2019-03-13T04:03:20.358Z,2.28
2019-03-13T04:05:46.668Z,2.27
2019-03-13T04:08:12.979Z,2.11
2019-03-13T04:10:39.301Z,2.04
2019-03-13T04:13:05.607Z,1.99
2019-03-13T04:15:31.931Z,1.77
2019-03-13T04:17:58.265Z,1.78
2019-03-13T04:20:24.569Z,1.82
2019-03-13T04:22:50.888Z,1.75
2019-03-13T04:25:17.197Z,1.50
2019-03-13T04:27:43.509Z,1.26
2019-03-13T04:30:09.828Z,1.38
2019-03-13T04:32:36.132Z,1.33
2019-03-13T04:35:02.475Z,1.24
2019-03-13T04:37:28.778Z,1.27
2019-03-13T04:39:55.078Z,1.23
2019-03-13T04:42:21.388Z,1.23
2019-03-13T04:44:47.704Z,1.31
2019-03-13T04:47:14.016Z,1.24
2019-03-13T04:49:40.331Z,1.13
2019-03-13T04:52:06.677Z,1.15
2019-03-13T04:54:32.947Z,1.20
2019-03-13T04:56:59.281Z,1.24
2019-03-13T04:59:25.585Z,1.17
2019-03-13T05:01:51.892Z,1.11
2019-03-13T05:04:18.204Z,1.13
2019-03-13T05:06:44.503Z,1.10
2019-03-13T05:09:10.830Z,1.12
2019-03-13T05:11:37.130Z,1.05
2019-03-13T05:14:03.433Z,0.98
2019-03-13T05:16:29.747Z,0.89
2019-03-13T05:18:56.055Z,0.90
2019-03-13T05:21:22.367Z,0.85
2019-03-13T05:23:48.667Z,0.85
2019-03-13T05:26:14.985Z,0.85
2019-03-13T05:28:41.309Z,0.83
2019-03-13T05:31:07.640Z,0.86
2019-03-13T05:33:33.948Z,0.93
2019-03-13T05:36:00.256Z,1.03
2019-03-13T05:38:26.570Z,1.11
2019-03-13T05:40:52.880Z,1.10
2019-03-13T05:43:19.183Z,1.19
2019-03-13T05:45:45.495Z,1.29
2019-03-13T05:48:11.811Z,1.43
2019-03-13T05:50:38.113Z,1.55
2019-03-13T05:53:04.442Z,1.63
2019-03-13T05:55:30.762Z,1.70
2019-03-13T05:57:57.061Z,1.72
2019-03-13T06:00:23.378Z,1.76
2019-03-13T06:02:49.681Z,1.82
2019-03-13T06:05:15.995Z,1.93
2019-03-13T06:07:42.305Z,2.24
2019-03-13T06:10:08.639Z,2.48
2019-03-13T06:12:34.954Z,2.56
2019-03-13T06:15:03.558Z,2.71
2019-03-13T06:17:27.583Z,2.75
2019-03-13T06:19:53.896Z,2.84
2019-03-13T06:22:20.211Z,2.97
2019-03-13T06:24:46.526Z,3.14
2019-03-13T06:27:12.835Z,3.25
2019-03-13T06:29:39.144Z,3.36
2019-03-13T06:32:05.593Z,3.37
2019-03-13T06:34:31.921Z,4.10
2019-03-13T06:36:58.223Z,4.31
2019-03-13T06:39:24.568Z,4.44
2019-03-13T06:41:50.872Z,4.97
2019-03-13T06:44:17.175Z,5.03
2019-03-13T06:46:43.490Z,5.17
2019-03-13T06:49:09.805Z,5.66
2019-03-13T06:51:36.133Z,6.02
2019-03-13T06:54:02.441Z,6.47
2019-03-13T06:56:28.968Z,6.77
2019-03-13T06:58:55.280Z,7.28
2019-03-13T07:01:21.590Z,7.20
2019-03-13T07:03:47.890Z,7.33
2019-03-13T07:06:14.494Z,7.40
2019-03-13T07:08:40.804Z,7.70
2019-03-13T07:11:07.114Z,7.87
2019-03-13T07:13:33.421Z,8.06
2019-03-13T07:15:59.785Z,8.04
2019-03-13T07:18:26.084Z,7.93
2019-03-13T07:20:52.419Z,8.07
2019-03-13T07:23:18.782Z,8.26
2019-03-13T07:25:45.120Z,8.63
2019-03-13T07:28:11.436Z,8.58
2019-03-13T07:30:37.735Z,8.66
2019-03-13T07:33:04.113Z,8.27
2019-03-13T07:35:30.434Z,8.21
2019-03-13T07:37:56.748Z,8.20
2019-03-13T07:40:23.063Z,8.50
2019-03-13T07:42:49.366Z,8.42
2019-03-13T07:45:15.690Z,8.66
2019-03-13T07:47:41.999Z,8.97
2019-03-13T07:50:08.307Z,9.01
2019-03-13T07:52:34.786Z,9.03
2019-03-13T07:55:01.135Z,8.83
2019-03-13T07:57:27.443Z,8.78
2019-03-13T07:59:53.759Z,8.62
2019-03-13T08:02:20.068Z,8.92
2019-03-13T08:04:46.376Z,8.90
2019-03-13T08:07:12.692Z,8.56
2019-03-13T08:09:39.011Z,8.66
2019-03-13T08:12:05.339Z,8.71
2019-03-13T08:14:31.673Z,7.93
2019-03-13T08:16:57.988Z,7.10
2019-03-13T08:19:24.692Z,7.47
2019-03-13T08:21:50.626Z,7.55
2019-03-13T08:24:16.936Z,7.00
2019-03-13T08:26:43.321Z,7.00
2019-03-13T08:29:09.631Z,7.36
2019-03-13T08:31:35.939Z,7.78
2019-03-13T08:34:02.304Z,8.08
2019-03-13T08:36:28.728Z,7.65
2019-03-13T08:38:55.034Z,7.33
2019-03-13T08:41:21.344Z,7.18
2019-03-13T08:43:47.657Z,6.98
2019-03-13T08:46:13.964Z,8.11
2019-03-13T08:48:40.288Z,8.66
2019-03-13T08:51:06.603Z,8.17
2019-03-13T08:53:32.920Z,8.13
2019-03-13T08:55:59.228Z,8.25
2019-03-13T08:58:25.541Z,8.88
2019-03-13T09:00:51.856Z,9.17
2019-03-13T09:03:18.185Z,9.46
2019-03-13T09:05:44.469Z,9.27
2019-03-13T09:08:10.780Z,8.78
2019-03-13T09:10:37.111Z,9.25
2019-03-13T09:13:03.432Z,9.40
2019-03-13T09:15:29.794Z,8.83
2019-03-13T09:17:56.066Z,8.63
2019-03-13T09:20:22.376Z,8.60
2019-03-13T09:22:48.722Z,8.46
2019-03-13T09:25:14.996Z,8.65
2019-03-13T09:27:41.308Z,8.49
2019-03-13T09:30:07.614Z,8.55
2019-03-13T09:32:33.937Z,8.82
2019-03-13T09:35:00.369Z,9.38
2019-03-13T09:37:26.572Z,9.48
2019-03-13T09:39:52.878Z,10.03
2019-03-13T09:42:19.202Z,10.86
2019-03-13T09:44:45.506Z,10.96
2019-03-13T09:47:11.812Z,10.98
2019-03-13T09:49:38.124Z,11.15
2019-03-13T09:52:04.431Z,11.29
2019-03-13T09:54:30.742Z,10.53
2019-03-13T09:56:57.047Z,10.36
2019-03-13T09:59:23.416Z,10.57
2019-03-13T10:01:49.734Z,10.06
2019-03-13T10:04:16.046Z,10.59
2019-03-13T10:06:42.426Z,10.98
2019-03-13T10:09:08.746Z,11.02
2019-03-13T10:11:35.111Z,11.36
2019-03-13T10:14:01.417Z,10.09
2019-03-13T10:16:27.763Z,10.43
2019-03-13T10:18:54.066Z,11.05
2019-03-13T10:21:20.382Z,11.50
2019-03-13T10:23:46.694Z,11.74
2019-03-13T10:26:13.009Z,11.73
2019-03-13T10:28:39.335Z,10.65
2019-03-13T10:31:05.642Z,10.70
2019-03-13T10:33:31.955Z,10.71
2019-03-13T10:35:58.281Z,10.23
2019-03-13T10:38:24.588Z,10.35
2019-03-13T10:40:50.921Z,10.25
2019-03-13T10:43:17.229Z,10.83
2019-03-13T10:45:43.565Z,10.31
2019-03-13T10:48:09.875Z,10.32
2019-03-13T10:50:36.191Z,11.10
2019-03-13T10:53:02.495Z,11.50
2019-03-13T10:55:28.818Z,11.30
2019-03-13T10:57:55.201Z,11.15
2019-03-13T11:00:21.550Z,10.71
2019-03-13T11:02:47.865Z,11.30
2019-03-13T11:05:14.190Z,11.68
2019-03-13T11:07:40.501Z,11.16
2019-03-13T11:10:06.809Z,11.64
2019-03-13T11:12:33.135Z,12.08
2019-03-13T11:14:59.446Z,12.90
2019-03-13T11:17:25.780Z,11.88
2019-03-13T11:19:52.092Z,10.96
2019-03-13T11:22:18.406Z,11.41
2019-03-13T11:24:44.718Z,12.04
2019-03-13T11:27:11.050Z,12.37
2019-03-13T11:29:37.376Z,12.67
2019-03-13T11:32:03.689Z,12.05
2019-03-13T11:34:30.011Z,11.75
2019-03-13T11:36:56.519Z,11.64
2019-03-13T11:39:24.066Z,11.74
2019-03-13T11:41:49.127Z,12.15
2019-03-13T11:44:15.456Z,11.56
2019-03-13T11:46:41.764Z,11.91
2019-03-13T11:49:08.075Z,11.37
2019-03-13T11:51:34.397Z,10.29
2019-03-13T11:54:00.691Z,9.89
2019-03-13T11:56:27.001Z,9.45
2019-03-13T11:58:53.310Z,9.53
2019-03-13T12:01:19.619Z,9.42
2019-03-13T12:03:45.919Z,9.34
2019-03-13T12:06:12.293Z,9.32
2019-03-13T12:08:38.585Z,9.05
2019-03-13T12:11:04.918Z,9.10
2019-03-13T12:13:31.229Z,9.18
2019-03-13T12:15:57.539Z,9.13
2019-03-13T12:18:23.855Z,9.81
2019-03-13T12:20:50.161Z,9.49
2019-03-13T12:23:16.478Z,10.37
2019-03-13T12:25:42.779Z,9.92
2019-03-13T12:28:09.355Z,10.13
2019-03-13T12:30:35.645Z,10.71
2019-03-13T12:33:01.963Z,10.88
2019-03-13T12:35:28.278Z,10.90
2019-03-13T12:37:54.588Z,10.07
2019-03-13T12:40:20.898Z,9.96
2019-03-13T12:42:47.209Z,11.11
2019-03-13T12:45:13.517Z,10.71
2019-03-13T12:47:39.830Z,10.59
2019-03-13T12:50:07.955Z,10.96
2019-03-13T12:52:34.225Z,11.36
2019-03-13T12:55:02.204Z,10.51
2019-03-13T12:57:26.888Z,9.94
2019-03-13T12:59:53.202Z,10.53
2019-03-13T13:02:19.529Z,10.62
2019-03-13T13:04:45.853Z,10.45
2019-03-13T13:07:12.189Z,10.77
2019-03-13T13:09:38.498Z,10.37
2019-03-13T13:12:04.800Z,9.85
2019-03-13T13:14:31.123Z,10.24
2019-03-13T13:16:57.431Z,9.99
2019-03-13T13:19:23.737Z,9.46
2019-03-13T13:21:50.057Z,9.37
2019-03-13T13:24:16.354Z,9.31
2019-03-13T13:26:42.675Z,9.16
2019-03-13T13:29:08.991Z,9.05
2019-03-13T13:31:35.303Z,8.91
2019-03-13T13:34:01.643Z,8.94
2019-03-13T13:36:27.932Z,8.98
2019-03-13T13:38:54.250Z,8.75
2019-03-13T13:41:20.602Z,8.57
2019-03-13T13:43:46.860Z,8.49
2019-03-13T13:46:13.185Z,8.55
2019-03-13T13:48:39.492Z,8.55
2019-03-13T13:51:05.803Z,8.75
2019-03-13T13:53:32.112Z,8.77
2019-03-13T13:55:58.456Z,8.73
2019-03-13T13:58:24.756Z,8.73
2019-03-13T14:00:51.073Z,8.75
2019-03-13T14:03:17.386Z,8.83
2019-03-13T14:05:43.732Z,8.74
2019-03-13T14:08:10.089Z,8.78
2019-03-13T14:10:36.399Z,8.53
2019-03-13T14:13:02.740Z,8.68
2019-03-13T14:15:29.081Z,8.74
2019-03-13T14:17:55.390Z,8.40
2019-03-13T14:20:21.712Z,8.43
2019-03-13T14:22:48.026Z,8.30
2019-03-13T14:25:14.350Z,8.25
2019-03-13T14:27:40.650Z,8.08
2019-03-13T14:30:06.963Z,8.15
2019-03-13T14:32:33.282Z,8.08
2019-03-13T14:34:59.611Z,8.11
2019-03-13T14:37:25.908Z,8.02
2019-03-13T14:39:52.245Z,8.01
2019-03-13T14:42:18.556Z,8.01
2019-03-13T14:44:44.860Z,8.07
2019-03-13T14:47:11.175Z,8.10
2019-03-13T14:49:37.485Z,8.25
2019-03-13T14:52:03.805Z,8.21
2019-03-13T14:54:30.113Z,8.16
2019-03-13T14:56:56.422Z,8.18
2019-03-13T14:59:22.724Z,8.08
2019-03-13T15:01:49.051Z,8.04
2019-03-13T15:04:15.356Z,8.13
2019-03-13T15:06:41.719Z,8.29
2019-03-13T15:09:08.004Z,8.13
2019-03-13T15:11:34.320Z,8.13
2019-03-13T15:14:00.630Z,8.11
2019-03-13T15:16:26.943Z,8.24
2019-03-13T15:18:53.243Z,8.22
2019-03-13T15:21:19.546Z,8.20
2019-03-13T15:23:48.660Z,8.13
2019-03-13T15:26:15.112Z,8.06
2019-03-13T15:28:41.502Z,7.97
2019-03-13T15:31:07.771Z,7.88
2019-03-13T15:33:34.084Z,7.95
2019-03-13T15:36:00.392Z,7.83
2019-03-13T15:38:26.705Z,7.79
2019-03-13T15:40:53.040Z,7.69
2019-03-13T15:43:19.330Z,7.77
2019-03-13T15:45:45.636Z,7.79
2019-03-13T15:48:12.021Z,7.70
2019-03-13T15:50:38.294Z,7.57
2019-03-13T15:53:04.601Z,7.58
2019-03-13T15:55:30.915Z,7.62
2019-03-13T15:57:57.240Z,7.60
2019-03-13T16:00:23.558Z,7.50
2019-03-13T16:02:49.864Z,7.41
2019-03-13T16:05:16.201Z,7.39
2019-03-13T16:07:42.511Z,7.35
2019-03-13T16:10:08.841Z,7.28
2019-03-13T16:12:35.177Z,7.18
2019-03-13T16:15:01.493Z,7.09
2019-03-13T16:17:27.795Z,7.00
2019-03-13T16:19:54.107Z,6.94
2019-03-13T16:22:22.956Z,6.89
2019-03-13T16:24:49.263Z,6.83
2019-03-13T16:27:15.572Z,6.76
2019-03-13T16:29:41.883Z,6.67
2019-03-13T16:32:08.192Z,6.64
2019-03-13T16:34:34.519Z,6.60
2019-03-13T16:37:00.837Z,6.49
2019-03-13T16:39:27.142Z,6.45
2019-03-13T16:41:53.474Z,6.38
2019-03-13T16:44:19.774Z,6.30
2019-03-13T16:46:46.113Z,6.27
2019-03-13T16:49:12.412Z,6.23
2019-03-13T16:51:38.720Z,6.16
2019-03-13T16:54:05.031Z,6.11
2019-03-13T16:56:31.357Z,6.04
2019-03-13T16:58:57.656Z,5.97
2019-03-13T17:01:23.970Z,5.98
2019-03-13T17:03:50.289Z,5.85
2019-03-13T17:06:16.650Z,5.79
2019-03-13T17:08:42.938Z,5.76
2019-03-13T17:11:09.298Z,5.70
2019-03-13T17:13:35.576Z,5.61
2019-03-13T17:16:01.879Z,5.61
2019-03-13T17:18:28.212Z,5.62
2019-03-13T17:20:54.521Z,5.56
2019-03-13T17:23:20.829Z,5.56
2019-03-13T17:25:47.136Z,5.52
2019-03-13T17:28:13.449Z,5.51
2019-03-13T17:30:39.756Z,5.44
2019-03-13T17:33:06.069Z,5.39
2019-03-13T17:35:32.382Z,5.36
2019-03-13T17:37:58.684Z,5.34
2019-03-13T17:40:25.090Z,5.32
2019-03-13T17:42:51.624Z,5.23
2019-03-13T17:45:17.953Z,5.14
2019-03-13T17:47:44.259Z,5.11
2019-03-13T17:50:10.568Z,5.06
2019-03-13T17:52:36.920Z,5.02
2019-03-13T17:55:03.234Z,5.03
2019-03-13T17:57:29.560Z,4.98
2019-03-13T17:59:55.874Z,5.01
2019-03-13T18:02:22.176Z,5.02
2019-03-13T18:04:48.503Z,4.98
2019-03-13T18:07:14.807Z,4.95
2019-03-13T18:09:41.119Z,4.89
2019-03-13T18:12:07.425Z,4.85
2019-03-13T18:14:33.769Z,4.89
2019-03-13T18:17:00.077Z,4.81
2019-03-13T18:19:26.446Z,4.76
2019-03-13T18:21:52.732Z,4.75
2019-03-13T18:24:19.036Z,4.75
2019-03-13T18:26:45.387Z,4.76
2019-03-13T18:29:11.701Z,4.78
2019-03-13T18:31:38.067Z,4.79
2019-03-13T18:34:04.486Z,4.79
2019-03-13T18:36:30.807Z,4.80
2019-03-13T18:38:57.122Z,4.78
2019-03-13T18:41:23.563Z,4.74
2019-03-13T18:43:49.748Z,4.63
2019-03-13T18:46:16.056Z,4.57
2019-03-13T18:48:42.359Z,4.55
2019-03-13T18:51:08.670Z,4.50
2019-03-13T18:53:34.975Z,4.42
2019-03-13T18:56:01.280Z,4.34
2019-03-13T18:58:27.617Z,4.22
2019-03-13T19:00:53.924Z,4.17
2019-03-13T19:03:20.241Z,4.12
2019-03-13T19:05:46.546Z,4.10
2019-03-13T19:08:12.848Z,4.07
2019-03-13T19:10:39.160Z,4.06
2019-03-13T19:13:05.468Z,4.03
2019-03-13T19:15:31.803Z,4.03
2019-03-13T19:18:00.463Z,4.02
2019-03-13T19:20:24.451Z,4.00
2019-03-13T19:22:50.773Z,4.01
2019-03-13T19:25:17.079Z,4.02
2019-03-13T19:27:43.402Z,4.04
2019-03-13T19:30:09.703Z,4.07
2019-03-13T19:32:36.070Z,4.07
2019-03-13T19:35:02.388Z,4.05
2019-03-13T19:37:28.700Z,4.05
2019-03-13T19:39:55.007Z,4.05
2019-03-13T19:42:21.334Z,4.05
2019-03-13T19:44:47.649Z,3.97
2019-03-13T19:47:13.957Z,3.91
2019-03-13T19:49:40.259Z,3.90
2019-03-13T19:52:06.569Z,3.88
2019-03-13T19:54:32.909Z,3.81
2019-03-13T19:56:59.205Z,3.76
2019-03-13T19:59:25.510Z,3.71
2019-03-13T20:01:51.857Z,3.70
2019-03-13T20:04:18.161Z,3.68
2019-03-13T20:06:44.459Z,3.64
2019-03-13T20:09:10.763Z,3.66
2019-03-13T20:11:37.106Z,3.67
2019-03-13T20:14:03.445Z,3.65
2019-03-13T20:16:29.729Z,3.63
2019-03-13T20:18:56.036Z,3.63
2019-03-13T20:21:22.339Z,3.59
2019-03-13T20:23:48.640Z,3.62
2019-03-13T20:26:14.946Z,3.69
2019-03-13T20:28:41.269Z,3.76
2019-03-13T20:31:07.571Z,3.77
2019-03-13T20:33:33.910Z,3.75
2019-03-13T20:36:00.215Z,3.74
2019-03-13T20:38:26.534Z,3.77
2019-03-13T20:40:52.842Z,3.76
2019-03-13T20:43:19.147Z,3.75
2019-03-13T20:45:45.497Z,3.73
2019-03-13T20:48:11.807Z,3.74
2019-03-13T20:50:38.337Z,3.77
2019-03-13T20:53:04.423Z,3.78
2019-03-13T20:55:30.731Z,3.76
2019-03-13T20:57:57.042Z,3.74
2019-03-13T21:00:23.381Z,3.74
2019-03-13T21:02:49.731Z,3.73
2019-03-13T21:05:16.040Z,3.67
2019-03-13T21:07:42.415Z,3.64
2019-03-13T21:10:08.656Z,3.60
2019-03-13T21:12:34.963Z,3.54
2019-03-13T21:15:01.273Z,3.55
2019-03-13T21:17:27.596Z,3.59
2019-03-13T21:19:53.913Z,3.56
2019-03-13T21:22:20.228Z,3.52
2019-03-13T21:24:46.534Z,3.49
2019-03-13T21:27:12.845Z,3.38
2019-03-13T21:29:39.147Z,3.34
2019-03-13T21:32:05.490Z,3.38
2019-03-13T21:34:31.795Z,3.43
2019-03-13T21:36:58.136Z,3.42
2019-03-13T21:39:24.440Z,3.38
2019-03-13T21:41:50.745Z,3.39
2019-03-13T21:44:17.056Z,3.40
2019-03-13T21:46:43.362Z,3.41
2019-03-13T21:49:09.673Z,3.43
2019-03-13T21:51:35.981Z,3.44
2019-03-13T21:54:02.331Z,3.41
2019-03-13T21:56:28.642Z,3.33
2019-03-13T21:58:54.951Z,3.41
2019-03-13T22:01:21.254Z,3.61
2019-03-13T22:03:47.560Z,3.82
2019-03-13T22:06:13.879Z,3.93
2019-03-13T22:08:40.181Z,4.03
2019-03-13T22:11:06.507Z,4.19
2019-03-13T22:13:32.815Z,4.24
2019-03-13T22:15:59.317Z,4.27
2019-03-13T22:18:25.443Z,4.32
2019-03-13T22:20:51.749Z,4.33
2019-03-13T22:23:18.056Z,4.35
2019-03-13T22:25:44.359Z,4.36
2019-03-13T22:28:10.718Z,4.34
2019-03-13T22:30:37.045Z,4.32
2019-03-13T22:33:03.346Z,4.32
2019-03-13T22:35:29.657Z,4.29
2019-03-13T22:37:55.967Z,4.25
2019-03-13T22:40:22.284Z,4.10
2019-03-13T22:42:48.596Z,4.02
2019-03-13T22:45:14.903Z,4.00
2019-03-13T22:47:42.942Z,3.96
2019-03-13T22:50:07.529Z,3.97
2019-03-13T22:52:33.864Z,3.99
2019-03-13T22:55:00.398Z,3.97
2019-03-13T22:57:26.483Z,3.91
2019-03-13T22:59:52.810Z,3.90
2019-03-13T23:02:19.192Z,3.88
2019-03-13T23:04:45.498Z,3.88
2019-03-13T23:07:14.838Z,3.89
2019-03-13T23:09:41.149Z,3.86
2019-03-13T23:12:09.877Z,3.81
2019-03-13T23:14:36.196Z,3.79
2019-03-13T23:17:02.510Z,3.74
2019-03-13T23:19:28.836Z,3.72
2019-03-13T23:21:55.144Z,3.70
2019-03-13T23:24:21.448Z,3.63
2019-03-13T23:26:47.763Z,3.59
2019-03-13T23:29:14.080Z,3.57
2019-03-13T23:31:40.387Z,3.54
2019-03-13T23:34:06.703Z,3.49
2019-03-13T23:36:33.009Z,3.41
2019-03-13T23:38:59.316Z,3.38
2019-03-13T23:41:25.686Z,3.35
2019-03-13T23:43:51.994Z,3.37
2019-03-13T23:46:18.297Z,3.38
2019-03-13T23:48:44.604Z,3.37
2019-03-13T23:51:10.961Z,3.35
2019-03-13T23:53:37.277Z,3.33
2019-03-13T23:56:03.584Z,3.39
2019-03-13T23:58:29.889Z,3.34
